createdAt,value
2022-11-19T00:00:17.051Z,1009.58
2022-11-19T00:01:17.064Z,1009.50
2022-11-19T00:02:17.182Z,1009.56
2022-11-19T00:03:17.011Z,1009.53
2022-11-19T00:04:16.998Z,1009.56
2022-11-19T00:05:17.026Z,1009.52
2022-11-19T00:06:16.976Z,1009.52
2022-11-19T00:07:17.021Z,1009.50
2022-11-19T00:08:16.958Z,1009.53
2022-11-19T00:09:17.214Z,1009.51
2022-11-19T00:10:16.933Z,1009.50
2022-11-19T00:11:16.927Z,1009.47
2022-11-19T00:12:16.932Z,1009.46
2022-11-19T00:13:16.907Z,1009.47
2022-11-19T00:14:16.924Z,1009.48
2022-11-19T00:15:16.878Z,1009.47
2022-11-19T00:16:16.870Z,1009.42
2022-11-19T00:17:16.880Z,1009.41
2022-11-19T00:18:16.846Z,1009.53
2022-11-19T00:19:17.064Z,1009.46
2022-11-19T00:20:16.824Z,1009.52
2022-11-19T00:21:16.815Z,1009.50
2022-11-19T00:22:16.823Z,1009.47
2022-11-19T00:23:16.824Z,1009.47
2022-11-19T00:24:16.784Z,1009.54
2022-11-19T00:25:16.771Z,1009.47
2022-11-19T00:26:16.777Z,1009.54
2022-11-19T00:27:16.776Z,1009.52
2022-11-19T00:28:16.765Z,1009.57
2022-11-19T00:29:18.167Z,1009.54
2022-11-19T00:30:40.840Z,1009.59
2022-11-19T00:31:17.706Z,1009.48
2022-11-19T00:32:16.697Z,1009.60
2022-11-19T00:33:16.705Z,1009.61
2022-11-19T00:34:16.681Z,1009.62
2022-11-19T00:35:16.666Z,1009.62
2022-11-19T00:36:16.656Z,1009.58
2022-11-19T00:37:16.644Z,1009.58
2022-11-19T00:38:16.664Z,1009.62
2022-11-19T00:39:16.637Z,1009.65
2022-11-19T00:40:16.614Z,1009.62
2022-11-19T00:41:16.598Z,1009.67
2022-11-19T00:42:16.620Z,1009.66
2022-11-19T00:43:16.577Z,1009.67
2022-11-19T00:44:16.569Z,1009.71
2022-11-19T00:45:16.556Z,1009.68
2022-11-19T00:46:16.555Z,1009.69
2022-11-19T00:47:16.555Z,1009.67
2022-11-19T00:48:16.525Z,1009.69
2022-11-19T00:49:16.725Z,1009.76
2022-11-19T00:50:16.503Z,1009.73
2022-11-19T00:51:16.491Z,1009.74
2022-11-19T00:52:16.482Z,1009.71
2022-11-19T00:53:16.475Z,1009.77
2022-11-19T00:54:16.480Z,1009.66
2022-11-19T00:55:16.469Z,1009.71
2022-11-19T00:56:16.438Z,1009.73
2022-11-19T00:57:16.431Z,1009.78
2022-11-19T00:58:16.423Z,1009.78
2022-11-19T00:59:16.636Z,1009.71
2022-11-19T01:00:16.404Z,1009.75
2022-11-19T01:01:16.430Z,1009.82
2022-11-19T01:02:16.375Z,1009.80
2022-11-19T01:03:16.366Z,1009.81
2022-11-19T01:04:16.376Z,1009.81
2022-11-19T01:05:16.343Z,1009.85
2022-11-19T01:06:19.169Z,1009.85
2022-11-19T01:07:16.355Z,1009.83
2022-11-19T01:08:16.309Z,1009.74
2022-11-19T01:09:16.630Z,1009.82
2022-11-19T01:10:16.291Z,1009.86
2022-11-19T01:11:16.298Z,1009.83
2022-11-19T01:12:16.268Z,1009.82
2022-11-19T01:13:16.257Z,1009.87
2022-11-19T01:14:16.270Z,1009.85
2022-11-19T01:15:16.230Z,1009.94
2022-11-19T01:16:16.251Z,1009.84
2022-11-19T01:17:16.213Z,1009.87
2022-11-19T01:18:16.204Z,1009.94
2022-11-19T01:19:16.514Z,1009.88
2022-11-19T01:20:16.252Z,1009.87
2022-11-19T01:21:16.174Z,1009.85
2022-11-19T01:22:16.166Z,1009.89
2022-11-19T01:23:16.149Z,1009.86
2022-11-19T01:24:16.159Z,1009.86
2022-11-19T01:25:16.124Z,1009.86
2022-11-19T01:26:16.141Z,1009.82
2022-11-19T01:27:16.239Z,1009.80
2022-11-19T01:28:16.101Z,1009.92
2022-11-19T01:29:16.266Z,1009.87
2022-11-19T01:30:16.076Z,1009.87
2022-11-19T01:31:16.083Z,1009.86
2022-11-19T01:32:16.050Z,1009.88
2022-11-19T01:33:16.037Z,1009.94
2022-11-19T01:34:16.049Z,1009.99
2022-11-19T01:35:16.014Z,1009.92
2022-11-19T01:36:16.008Z,1009.97
2022-11-19T01:37:15.997Z,1009.97
2022-11-19T01:38:15.985Z,1009.99
2022-11-19T01:39:16.004Z,1009.99
2022-11-19T01:40:15.965Z,1010.03
2022-11-19T01:41:15.978Z,1010.03
2022-11-19T01:42:15.946Z,1009.97
2022-11-19T01:43:15.949Z,1009.89
2022-11-19T01:44:15.926Z,1010.04
2022-11-19T01:45:15.939Z,1009.96
2022-11-19T01:46:15.902Z,1010.03
2022-11-19T01:47:15.892Z,1010.05
2022-11-19T01:48:15.881Z,1010.08
2022-11-19T01:49:15.871Z,1010.03
2022-11-19T01:50:15.870Z,1010.03
2022-11-19T01:51:15.869Z,1010.02
2022-11-19T01:52:15.847Z,1010.03
2022-11-19T01:53:15.821Z,1010.03
2022-11-19T01:54:15.816Z,1010.04
2022-11-19T01:55:15.803Z,1010.04
2022-11-19T01:56:15.811Z,1010.12
2022-11-19T01:57:15.780Z,1010.12
2022-11-19T01:58:15.773Z,1010.09
2022-11-19T01:59:15.781Z,1010.13
2022-11-19T02:00:15.750Z,1010.03
2022-11-19T02:01:15.826Z,1010.07
2022-11-19T02:02:15.732Z,1010.12
2022-11-19T02:03:15.721Z,1010.12
2022-11-19T02:04:15.706Z,1010.17
2022-11-19T02:05:15.693Z,1010.14
2022-11-19T02:06:15.714Z,1010.12
2022-11-19T02:07:15.720Z,1010.10
2022-11-19T02:08:15.685Z,1010.09
2022-11-19T02:09:15.650Z,1010.12
2022-11-19T02:10:15.644Z,1010.11
2022-11-19T02:11:15.650Z,1010.13
2022-11-19T02:12:15.625Z,1010.13
2022-11-19T02:13:15.626Z,1010.08
2022-11-19T02:14:15.600Z,1010.03
2022-11-19T02:15:15.601Z,1010.05
2022-11-19T02:16:15.599Z,1010.08
2022-11-19T02:17:15.569Z,1010.01
2022-11-19T02:18:15.553Z,1010.07
2022-11-19T02:19:15.569Z,1010.07
2022-11-19T02:20:15.568Z,1010.08
2022-11-19T02:21:15.519Z,1010.11
2022-11-19T02:22:15.514Z,1010.06
2022-11-19T02:23:15.500Z,1010.10
2022-11-19T02:24:15.491Z,1010.08
2022-11-19T02:25:15.501Z,1010.09
2022-11-19T02:26:15.470Z,1010.09
2022-11-19T02:27:15.457Z,1010.02
2022-11-19T02:28:15.449Z,1009.98
2022-11-19T02:29:15.454Z,1010.07
2022-11-19T02:30:15.450Z,1010.00
2022-11-19T02:31:15.453Z,1009.97
2022-11-19T02:32:15.411Z,1009.94
2022-11-19T02:33:15.391Z,1010.00
2022-11-19T02:34:15.390Z,1009.96
2022-11-19T02:35:15.377Z,1009.97
2022-11-19T02:36:15.383Z,1009.96
2022-11-19T02:37:15.350Z,1010.00
2022-11-19T02:38:15.346Z,1009.96
2022-11-19T02:39:15.331Z,1009.97
2022-11-19T02:40:15.325Z,1009.96
2022-11-19T02:41:15.330Z,1009.94
2022-11-19T02:42:15.298Z,1009.98
2022-11-19T02:43:15.287Z,1009.96
2022-11-19T02:44:15.277Z,1009.97
2022-11-19T02:45:15.266Z,1010.00
2022-11-19T02:46:15.274Z,1010.05
2022-11-19T02:47:15.276Z,1010.02
2022-11-19T02:48:15.249Z,1010.06
2022-11-19T02:49:15.223Z,1010.09
2022-11-19T02:50:15.209Z,1010.12
2022-11-19T02:51:15.202Z,1010.08
2022-11-19T02:52:15.186Z,1010.08
2022-11-19T02:53:15.198Z,1010.13
2022-11-19T02:54:15.165Z,1010.08
2022-11-19T02:55:15.154Z,1010.04
2022-11-19T02:56:15.148Z,1009.97
2022-11-19T02:57:15.134Z,1009.98
2022-11-19T02:58:15.152Z,1010.03
2022-11-19T02:59:15.106Z,1010.08
2022-11-19T03:00:15.100Z,1009.99
2022-11-19T03:01:15.137Z,1010.01
2022-11-19T03:02:15.077Z,1010.02
2022-11-19T03:03:15.085Z,1009.98
2022-11-19T03:04:15.079Z,1009.94
2022-11-19T03:05:15.047Z,1009.96
2022-11-19T03:06:15.041Z,1009.99
2022-11-19T03:07:15.093Z,1009.92
2022-11-19T03:08:15.022Z,1009.95
2022-11-19T03:09:15.004Z,1009.93
2022-11-19T03:10:15.001Z,1009.96
2022-11-19T03:11:14.979Z,1010.01
2022-11-19T03:12:14.970Z,1009.99
2022-11-19T03:13:14.977Z,1009.98
2022-11-19T03:14:14.949Z,1009.96
2022-11-19T03:15:14.961Z,1010.02
2022-11-19T03:16:14.930Z,1009.98
2022-11-19T03:17:14.916Z,1010.00
2022-11-19T03:18:14.908Z,1009.96
2022-11-19T03:19:14.915Z,1009.99
2022-11-19T03:20:14.903Z,1010.03
2022-11-19T03:21:14.874Z,1010.04
2022-11-19T03:22:14.866Z,1009.99
2022-11-19T03:23:14.852Z,1010.01
2022-11-19T03:24:14.838Z,1009.93
2022-11-19T03:25:14.844Z,1010.02
2022-11-19T03:26:14.826Z,1010.00
2022-11-19T03:27:14.806Z,1009.99
2022-11-19T03:28:14.826Z,1010.06
2022-11-19T03:29:14.790Z,1010.00
2022-11-19T03:30:14.804Z,1010.08
2022-11-19T03:31:14.764Z,1010.07
2022-11-19T03:32:14.758Z,1010.09
2022-11-19T03:33:14.771Z,1010.19
2022-11-19T03:34:14.733Z,1010.21
2022-11-19T03:35:14.776Z,1010.16
2022-11-19T03:36:14.713Z,1010.20
2022-11-19T03:37:14.698Z,1010.14
2022-11-19T03:38:14.716Z,1010.16
2022-11-19T03:39:14.680Z,1010.12
2022-11-19T03:40:14.667Z,1010.12
2022-11-19T03:41:14.663Z,1010.09
2022-11-19T03:42:14.644Z,1010.13
2022-11-19T03:43:14.669Z,1010.17
2022-11-19T03:44:14.629Z,1010.19
2022-11-19T03:45:14.635Z,1010.22
2022-11-19T03:46:14.602Z,1010.19
2022-11-19T03:47:14.593Z,1010.23
2022-11-19T03:48:14.581Z,1010.23
2022-11-19T03:49:14.591Z,1010.22
2022-11-19T03:50:14.558Z,1010.25
2022-11-19T03:51:14.606Z,1010.22
2022-11-19T03:52:14.540Z,1010.28
2022-11-19T03:53:14.533Z,1010.26
2022-11-19T03:54:14.515Z,1010.18
2022-11-19T03:55:14.506Z,1010.21
2022-11-19T03:56:14.517Z,1010.19
2022-11-19T03:57:14.483Z,1010.18
2022-11-19T03:58:14.476Z,1010.23
2022-11-19T03:59:14.493Z,1010.21
2022-11-19T04:00:14.454Z,1010.26
2022-11-19T04:01:14.445Z,1010.22
2022-11-19T04:02:14.429Z,1010.27
2022-11-19T04:03:14.460Z,1010.25
2022-11-19T04:04:14.406Z,1010.23
2022-11-19T04:05:14.400Z,1010.27
2022-11-19T04:06:14.386Z,1010.18
2022-11-19T04:07:14.532Z,1010.17
2022-11-19T04:08:14.365Z,1010.24
2022-11-19T04:09:14.383Z,1010.20
2022-11-19T04:10:14.344Z,1010.20
2022-11-19T04:11:14.353Z,1010.22
2022-11-19T04:12:14.320Z,1010.22
2022-11-19T04:13:14.316Z,1010.16
2022-11-19T04:14:14.300Z,1010.11
2022-11-19T04:15:14.296Z,1010.24
2022-11-19T04:16:14.302Z,1010.18
2022-11-19T04:17:14.271Z,1010.25
2022-11-19T04:18:14.257Z,1010.20
2022-11-19T04:19:14.252Z,1010.26
2022-11-19T04:20:14.258Z,1010.30
2022-11-19T04:21:14.237Z,1010.41
2022-11-19T04:22:14.211Z,1010.38
2022-11-19T04:23:14.225Z,1010.36
2022-11-19T04:24:14.209Z,1010.41
2022-11-19T04:25:14.188Z,1010.37
2022-11-19T04:26:14.194Z,1010.37
2022-11-19T04:27:14.164Z,1010.44
2022-11-19T04:28:14.147Z,1010.43
2022-11-19T04:29:14.164Z,1010.40
2022-11-19T04:30:14.134Z,1010.40
2022-11-19T04:31:17.815Z,1010.48
2022-11-19T04:32:14.107Z,1010.44
2022-11-19T04:33:14.100Z,1010.34
2022-11-19T04:34:14.112Z,1010.32
2022-11-19T04:35:14.108Z,1010.41
2022-11-19T04:36:14.060Z,1010.30
2022-11-19T04:37:14.057Z,1010.33
2022-11-19T04:38:14.042Z,1010.33
2022-11-19T04:39:14.075Z,1010.29
2022-11-19T04:40:14.018Z,1010.25
2022-11-19T04:41:14.016Z,1010.24
2022-11-19T04:42:14.022Z,1010.27
2022-11-19T04:43:13.992Z,1010.22
2022-11-19T04:44:13.976Z,1010.21
2022-11-19T04:45:13.987Z,1010.20
2022-11-19T04:46:13.955Z,1010.23
2022-11-19T04:47:13.972Z,1010.25
2022-11-19T04:48:13.932Z,1010.23
2022-11-19T04:49:13.924Z,1010.24
2022-11-19T04:50:13.908Z,1010.20
2022-11-19T04:51:13.903Z,1010.20
2022-11-19T04:52:13.907Z,1010.22
2022-11-19T04:53:13.880Z,1010.23
2022-11-19T04:54:13.867Z,1010.16
2022-11-19T04:55:13.904Z,1010.17
2022-11-19T04:56:13.845Z,1010.15
2022-11-19T04:57:13.841Z,1010.18
2022-11-19T04:58:13.823Z,1010.13
2022-11-19T04:59:13.818Z,1010.10
2022-11-19T05:00:13.828Z,1010.13
2022-11-19T05:01:13.833Z,1010.12
2022-11-19T05:02:13.783Z,1010.03
2022-11-19T05:03:13.774Z,1010.06
2022-11-19T05:04:13.765Z,1010.08
2022-11-19T05:05:13.777Z,1010.12
2022-11-19T05:06:13.739Z,1010.12
2022-11-19T05:07:13.772Z,1010.02
2022-11-19T05:08:13.718Z,1010.01
2022-11-19T05:09:13.712Z,1010.01
2022-11-19T05:10:13.694Z,1009.99
2022-11-19T05:11:13.733Z,1009.98
2022-11-19T05:12:13.681Z,1010.01
2022-11-19T05:13:13.667Z,1009.98
2022-11-19T05:14:13.655Z,1009.99
2022-11-19T05:15:13.648Z,1010.01
2022-11-19T05:16:13.655Z,1009.98
2022-11-19T05:17:13.624Z,1010.02
2022-11-19T05:18:13.630Z,1010.00
2022-11-19T05:19:13.603Z,1010.00
2022-11-19T05:20:13.593Z,1010.03
2022-11-19T05:21:13.600Z,1010.05
2022-11-19T05:22:13.565Z,1009.99
2022-11-19T05:23:13.557Z,1010.02
2022-11-19T05:24:13.547Z,1009.95
2022-11-19T05:25:13.539Z,1009.97
2022-11-19T05:26:13.547Z,1010.01
2022-11-19T05:27:13.535Z,1009.99
2022-11-19T05:28:13.500Z,1009.98
2022-11-19T05:29:13.492Z,1009.95
2022-11-19T05:30:13.486Z,1009.97
2022-11-19T05:31:13.494Z,1009.90
2022-11-19T05:32:13.457Z,1009.95
2022-11-19T05:33:13.448Z,1009.95
2022-11-19T05:34:13.454Z,1009.91
2022-11-19T05:35:13.429Z,1009.95
2022-11-19T05:36:13.412Z,1009.94
2022-11-19T05:37:13.412Z,1009.93
2022-11-19T05:38:13.395Z,1009.94
2022-11-19T05:39:16.224Z,1009.95
2022-11-19T05:40:14.375Z,1009.91
2022-11-19T05:41:13.367Z,1009.92
2022-11-19T05:42:13.352Z,1009.97
2022-11-19T05:43:13.361Z,1009.95
2022-11-19T05:44:13.353Z,1009.97
2022-11-19T05:45:13.321Z,1009.89
2022-11-19T05:46:13.307Z,1009.84
2022-11-19T05:47:13.298Z,1009.94
2022-11-19T05:48:13.291Z,1009.93
2022-11-19T05:49:13.300Z,1009.91
2022-11-19T05:50:13.288Z,1009.86
2022-11-19T05:51:13.257Z,1009.90
2022-11-19T05:52:13.247Z,1009.84
2022-11-19T05:53:13.245Z,1009.90
2022-11-19T05:54:13.269Z,1009.91
2022-11-19T05:55:13.239Z,1009.88
2022-11-19T05:56:13.199Z,1009.91
2022-11-19T05:57:13.192Z,1009.94
2022-11-19T05:58:13.180Z,1009.96
2022-11-19T05:59:13.187Z,1009.90
2022-11-19T06:00:13.172Z,1009.90
2022-11-19T06:01:13.147Z,1009.93
2022-11-19T06:02:13.138Z,1009.93
2022-11-19T06:03:13.214Z,1010.00
2022-11-19T06:04:13.139Z,1009.97
2022-11-19T06:05:13.110Z,1009.94
2022-11-19T06:06:13.091Z,1009.96
2022-11-19T06:07:13.144Z,1010.05
2022-11-19T06:08:13.073Z,1010.00
2022-11-19T06:09:13.061Z,1010.01
2022-11-19T06:10:13.069Z,1009.96
2022-11-19T06:11:13.061Z,1009.93
2022-11-19T06:12:13.024Z,1009.95
2022-11-19T06:13:13.019Z,1009.98
2022-11-19T06:14:13.006Z,1009.97
2022-11-19T06:15:13.022Z,1009.97
2022-11-19T06:16:13.004Z,1009.98
2022-11-19T06:17:12.978Z,1010.00
2022-11-19T06:18:12.960Z,1009.98
2022-11-19T06:19:12.952Z,1009.99
2022-11-19T06:20:12.943Z,1009.98
2022-11-19T06:21:12.951Z,1010.02
2022-11-19T06:22:12.926Z,1009.95
2022-11-19T06:23:12.908Z,1009.99
2022-11-19T06:24:12.915Z,1010.00
2022-11-19T06:25:12.892Z,1010.00
2022-11-19T06:26:12.878Z,1009.94
2022-11-19T06:27:12.867Z,1009.96
2022-11-19T06:28:12.854Z,1009.97
2022-11-19T06:29:12.875Z,1009.95
2022-11-19T06:30:12.832Z,1009.92
2022-11-19T06:31:12.843Z,1009.87
2022-11-19T06:32:12.809Z,1009.96
2022-11-19T06:33:12.811Z,1009.92
2022-11-19T06:34:12.812Z,1009.91
2022-11-19T06:35:14.401Z,1009.87
2022-11-19T06:36:12.765Z,1009.87
2022-11-19T06:37:12.762Z,1009.85
2022-11-19T06:38:12.760Z,1009.87
2022-11-19T06:39:12.763Z,1009.89
2022-11-19T06:40:12.746Z,1009.89
2022-11-19T06:41:12.713Z,1009.93
2022-11-19T06:42:12.704Z,1009.95
2022-11-19T06:43:12.693Z,1009.88
2022-11-19T06:44:12.680Z,1009.91
2022-11-19T06:45:12.699Z,1009.92
2022-11-19T06:46:12.659Z,1009.86
2022-11-19T06:47:12.667Z,1009.92
2022-11-19T06:48:12.639Z,1009.90
2022-11-19T06:49:18.442Z,1009.92
2022-11-19T06:50:13.650Z,1009.93
2022-11-19T06:51:12.611Z,1009.94
2022-11-19T06:52:12.593Z,1009.95
2022-11-19T06:53:12.586Z,1009.96
2022-11-19T06:54:12.577Z,1009.97
2022-11-19T06:55:12.583Z,1010.03
2022-11-19T06:56:12.554Z,1009.99
2022-11-19T06:57:12.546Z,1009.99
2022-11-19T06:58:12.531Z,1010.02
2022-11-19T06:59:12.526Z,1010.05
2022-11-19T07:00:12.528Z,1010.03
2022-11-19T07:01:12.498Z,1010.03
2022-11-19T07:02:12.492Z,1010.12
2022-11-19T07:03:12.531Z,1010.06
2022-11-19T07:04:12.467Z,1010.03
2022-11-19T07:05:12.462Z,1010.06
2022-11-19T07:06:12.467Z,1010.05
2022-11-19T07:07:12.496Z,1010.06
2022-11-19T07:08:12.426Z,1010.07
2022-11-19T07:09:12.419Z,1010.00
2022-11-19T07:10:12.401Z,1009.97
2022-11-19T07:11:12.422Z,1009.94
2022-11-19T07:12:12.397Z,1009.91
2022-11-19T07:13:12.369Z,1009.92
2022-11-19T07:14:12.360Z,1009.89
2022-11-19T07:15:12.348Z,1009.86
2022-11-19T07:16:12.333Z,1009.92
2022-11-19T07:17:12.359Z,1009.94
2022-11-19T07:18:12.316Z,1009.98
2022-11-19T07:19:12.337Z,1009.97
2022-11-19T07:20:12.293Z,1009.96
2022-11-19T07:21:12.286Z,1009.93
2022-11-19T07:22:12.275Z,1010.01
2022-11-19T07:23:12.287Z,1010.03
2022-11-19T07:24:12.252Z,1009.95
2022-11-19T07:25:12.240Z,1009.97
2022-11-19T07:26:12.229Z,1009.97
2022-11-19T07:27:12.246Z,1009.92
2022-11-19T07:28:12.251Z,1009.97
2022-11-19T07:29:12.198Z,1010.02
2022-11-19T07:30:12.187Z,1009.96
2022-11-19T07:31:12.179Z,1009.98
2022-11-19T07:32:12.161Z,1009.95
2022-11-19T07:33:12.188Z,1009.93
2022-11-19T07:34:12.140Z,1009.93
2022-11-19T07:35:12.155Z,1009.92
2022-11-19T07:36:17.936Z,1009.96
2022-11-19T07:37:13.131Z,1009.94
2022-11-19T07:38:12.102Z,1009.96
2022-11-19T07:39:12.112Z,1009.95
2022-11-19T07:40:12.077Z,1009.90
2022-11-19T07:41:12.071Z,1009.89
2022-11-19T07:42:12.078Z,1009.93
2022-11-19T07:43:12.052Z,1009.96
2022-11-19T07:44:12.059Z,1009.90
2022-11-19T07:45:12.028Z,1009.87
2022-11-19T07:46:12.036Z,1009.90
2022-11-19T07:47:12.006Z,1009.80
2022-11-19T07:48:11.990Z,1009.82
2022-11-19T07:49:12.010Z,1009.84
2022-11-19T07:50:11.964Z,1009.84
2022-11-19T07:51:11.987Z,1009.82
2022-11-19T07:52:11.966Z,1009.85
2022-11-19T07:53:11.944Z,1009.83
2022-11-19T07:54:11.958Z,1009.78
2022-11-19T07:55:11.915Z,1009.87
2022-11-19T07:56:11.908Z,1009.81
2022-11-19T07:57:11.919Z,1009.87
2022-11-19T07:58:11.886Z,1009.86
2022-11-19T07:59:11.889Z,1009.86
2022-11-19T08:00:11.871Z,1009.90
2022-11-19T08:01:11.857Z,1009.77
2022-11-19T08:02:11.909Z,1009.80
2022-11-19T08:03:11.828Z,1009.78
2022-11-19T08:04:11.820Z,1009.80
2022-11-19T08:05:11.807Z,1009.73
2022-11-19T08:06:11.801Z,1009.76
2022-11-19T08:07:11.880Z,1009.69
2022-11-19T08:08:11.781Z,1009.70
2022-11-19T08:09:11.761Z,1009.66
2022-11-19T08:10:11.759Z,1009.67
2022-11-19T08:11:11.740Z,1009.65
2022-11-19T08:12:11.760Z,1009.69
2022-11-19T08:13:11.726Z,1009.66
2022-11-19T08:14:11.712Z,1009.59
2022-11-19T08:15:11.702Z,1009.58
2022-11-19T08:16:11.693Z,1009.53
2022-11-19T08:17:11.703Z,1009.58
2022-11-19T08:18:11.672Z,1009.58
2022-11-19T08:19:11.655Z,1009.55
2022-11-19T08:20:11.648Z,1009.60
2022-11-19T08:21:11.659Z,1009.63
2022-11-19T08:22:11.635Z,1009.63
2022-11-19T08:23:11.635Z,1009.64
2022-11-19T08:24:11.614Z,1009.67
2022-11-19T08:25:11.591Z,1009.60
2022-11-19T08:26:11.605Z,1009.59
2022-11-19T08:27:11.592Z,1009.60
2022-11-19T08:28:11.564Z,1009.52
2022-11-19T08:29:15.906Z,1009.57
2022-11-19T08:30:12.540Z,1009.49
2022-11-19T08:31:11.562Z,1009.54
2022-11-19T08:32:11.541Z,1009.55
2022-11-19T08:33:11.509Z,1009.50
2022-11-19T08:34:11.520Z,1009.51
2022-11-19T08:35:11.482Z,1009.53
2022-11-19T08:36:11.478Z,1009.48
2022-11-19T08:37:11.461Z,1009.50
2022-11-19T08:38:11.480Z,1009.52
2022-11-19T08:39:11.460Z,1009.52
2022-11-19T08:40:11.434Z,1009.48
2022-11-19T08:41:11.418Z,1009.44
2022-11-19T08:42:11.418Z,1009.41
2022-11-19T08:43:11.434Z,1009.45
2022-11-19T08:44:11.389Z,1009.47
2022-11-19T08:45:11.375Z,1009.48
2022-11-19T08:46:11.374Z,1009.50
2022-11-19T08:47:11.352Z,1009.51
2022-11-19T08:48:11.469Z,1009.49
2022-11-19T08:49:11.330Z,1009.48
2022-11-19T08:50:11.324Z,1009.54
2022-11-19T08:51:11.312Z,1009.54
2022-11-19T08:52:11.304Z,1009.51
2022-11-19T08:53:11.286Z,1009.50
2022-11-19T08:54:11.296Z,1009.49
2022-11-19T08:55:11.282Z,1009.52
2022-11-19T08:56:15.343Z,1009.46
2022-11-19T08:57:12.265Z,1009.52
2022-11-19T08:58:11.236Z,1009.50
2022-11-19T08:59:11.239Z,1009.47
2022-11-19T09:00:11.218Z,1009.53
2022-11-19T09:01:11.246Z,1009.51
2022-11-19T09:02:11.224Z,1009.50
2022-11-19T09:03:11.179Z,1009.53
2022-11-19T09:04:11.176Z,1009.44
2022-11-19T09:05:14.523Z,1009.47
2022-11-19T09:06:11.161Z,1009.50
2022-11-19T09:07:11.211Z,1009.44
2022-11-19T09:08:11.155Z,1009.48
2022-11-19T09:09:11.149Z,1009.41
2022-11-19T09:10:11.117Z,1009.45
2022-11-19T09:11:11.116Z,1009.45
2022-11-19T09:12:11.106Z,1009.47
2022-11-19T09:13:11.092Z,1009.45
2022-11-19T09:14:11.085Z,1009.45
2022-11-19T09:15:11.057Z,1009.49
2022-11-19T09:16:11.069Z,1009.49
2022-11-19T09:17:11.025Z,1009.52
2022-11-19T09:18:11.024Z,1009.55
2022-11-19T09:19:11.014Z,1009.57
2022-11-19T09:20:11.000Z,1009.54
2022-11-19T09:21:11.009Z,1009.53
2022-11-19T09:22:10.983Z,1009.54
2022-11-19T09:23:10.967Z,1009.45
2022-11-19T09:24:10.983Z,1009.43
2022-11-19T09:25:10.940Z,1009.45
2022-11-19T09:26:10.962Z,1009.52
2022-11-19T09:27:10.937Z,1009.48
2022-11-19T09:28:10.912Z,1009.46
2022-11-19T09:29:10.898Z,1009.43
2022-11-19T09:30:10.890Z,1009.39
2022-11-19T09:31:10.880Z,1009.40
2022-11-19T09:32:10.892Z,1009.32
2022-11-19T09:33:10.857Z,1009.38
2022-11-19T09:34:10.843Z,1009.34
2022-11-19T09:35:10.838Z,1009.39
2022-11-19T09:36:10.827Z,1009.35
2022-11-19T09:37:10.814Z,1009.33
2022-11-19T09:38:10.833Z,1009.31
2022-11-19T09:39:10.793Z,1009.32
2022-11-19T09:40:10.781Z,1009.35
2022-11-19T09:41:10.768Z,1009.36
2022-11-19T09:42:10.789Z,1009.36
2022-11-19T09:43:15.267Z,1009.35
2022-11-19T09:44:10.754Z,1009.42
2022-11-19T09:45:10.725Z,1009.39
2022-11-19T09:46:10.718Z,1009.37
2022-11-19T09:47:10.702Z,1009.35
2022-11-19T09:48:10.693Z,1009.33
2022-11-19T09:49:10.706Z,1009.31
2022-11-19T09:50:10.677Z,1009.37
2022-11-19T09:51:10.684Z,1009.40
2022-11-19T09:52:10.659Z,1009.32
2022-11-19T09:53:10.642Z,1009.33
2022-11-19T09:54:10.668Z,1009.36
2022-11-19T09:55:10.615Z,1009.36
2022-11-19T09:56:10.616Z,1009.37
2022-11-19T09:57:10.597Z,1009.35
2022-11-19T09:58:10.591Z,1009.34
2022-11-19T09:59:10.612Z,1009.32
2022-11-19T10:00:10.567Z,1009.34
2022-11-19T10:01:10.555Z,1009.24
2022-11-19T10:02:10.552Z,1009.25
2022-11-19T10:03:10.586Z,1009.30
2022-11-19T10:04:10.544Z,1009.24
2022-11-19T10:05:10.516Z,1009.28
2022-11-19T10:06:10.503Z,1009.26
2022-11-19T10:07:10.532Z,1009.16
2022-11-19T10:08:10.478Z,1009.20
2022-11-19T10:09:10.482Z,1009.21
2022-11-19T10:10:12.474Z,1009.12
2022-11-19T10:11:10.441Z,1009.11
2022-11-19T10:12:10.441Z,1009.14
2022-11-19T10:13:10.422Z,1009.12
2022-11-19T10:14:10.439Z,1009.13
2022-11-19T10:15:10.422Z,1009.08
2022-11-19T10:16:10.398Z,1009.09
2022-11-19T10:17:10.394Z,1009.05
2022-11-19T10:18:10.378Z,1009.05
2022-11-19T10:19:10.418Z,1009.00
2022-11-19T10:20:10.352Z,1008.97
2022-11-19T10:21:10.343Z,1008.99
2022-11-19T10:22:10.324Z,1008.95
2022-11-19T10:23:10.312Z,1008.97
2022-11-19T10:24:10.313Z,1008.98
2022-11-19T10:25:10.310Z,1008.94
2022-11-19T10:26:10.287Z,1008.84
2022-11-19T10:27:10.271Z,1008.89
2022-11-19T10:28:10.260Z,1008.91
2022-11-19T10:29:10.248Z,1008.81
2022-11-19T10:30:10.262Z,1008.76
2022-11-19T10:31:10.246Z,1008.83
2022-11-19T10:32:10.224Z,1008.79
2022-11-19T10:33:10.211Z,1008.83
2022-11-19T10:34:10.198Z,1008.77
2022-11-19T10:35:10.203Z,1008.83
2022-11-19T10:36:10.180Z,1008.83
2022-11-19T10:37:10.170Z,1008.84
2022-11-19T10:38:10.172Z,1008.77
2022-11-19T10:39:10.150Z,1008.77
2022-11-19T10:40:10.158Z,1008.73
2022-11-19T10:41:10.122Z,1008.72
2022-11-19T10:42:10.116Z,1008.80
2022-11-19T10:43:10.108Z,1008.81
2022-11-19T10:44:10.090Z,1008.80
2022-11-19T10:45:10.095Z,1008.78
2022-11-19T10:46:10.075Z,1008.75
2022-11-19T10:47:10.082Z,1008.77
2022-11-19T10:48:10.069Z,1008.73
2022-11-19T10:49:10.030Z,1008.73
2022-11-19T10:50:11.504Z,1008.77
2022-11-19T10:51:10.012Z,1008.75
2022-11-19T10:52:10.002Z,1008.71
2022-11-19T10:53:10.008Z,1008.72
2022-11-19T10:54:09.979Z,1008.73
2022-11-19T10:55:09.968Z,1008.71
2022-11-19T10:56:09.995Z,1008.74
2022-11-19T10:57:09.949Z,1008.74
2022-11-19T10:58:09.940Z,1008.74
2022-11-19T10:59:09.926Z,1008.68
2022-11-19T11:00:09.918Z,1008.69
2022-11-19T11:01:09.970Z,1008.65
2022-11-19T11:02:09.916Z,1008.67
2022-11-19T11:03:09.906Z,1008.64
2022-11-19T11:04:09.876Z,1008.58
2022-11-19T11:05:09.863Z,1008.59
2022-11-19T11:06:09.881Z,1008.58
2022-11-19T11:07:09.916Z,1008.61
2022-11-19T11:08:09.833Z,1008.54
2022-11-19T11:09:09.815Z,1008.63
2022-11-19T11:10:09.815Z,1008.54
2022-11-19T11:11:09.813Z,1008.56
2022-11-19T11:12:09.792Z,1008.54
2022-11-19T11:13:09.800Z,1008.52
2022-11-19T11:14:09.771Z,1008.44
2022-11-19T11:15:09.754Z,1008.45
2022-11-19T11:16:09.752Z,1008.47
2022-11-19T11:17:09.738Z,1008.38
2022-11-19T11:18:09.733Z,1008.44
2022-11-19T11:19:09.849Z,1008.39
2022-11-19T11:20:09.706Z,1008.37
2022-11-19T11:21:09.687Z,1008.28
2022-11-19T11:22:09.676Z,1008.32
2022-11-19T11:23:09.667Z,1008.27
2022-11-19T11:24:09.679Z,1008.27
2022-11-19T11:25:09.651Z,1008.29
2022-11-19T11:26:09.652Z,1008.31
2022-11-19T11:27:09.627Z,1008.30
2022-11-19T11:28:09.622Z,1008.26
2022-11-19T11:29:09.632Z,1008.33
2022-11-19T11:30:09.602Z,1008.33
2022-11-19T11:31:09.586Z,1008.31
2022-11-19T11:32:09.587Z,1008.32
2022-11-19T11:33:09.599Z,1008.28
2022-11-19T11:34:09.573Z,1008.28
2022-11-19T11:35:14.954Z,1008.23
2022-11-19T11:36:10.546Z,1008.29
2022-11-19T11:37:09.524Z,1008.24
2022-11-19T11:38:09.511Z,1008.26
2022-11-19T11:39:09.527Z,1008.28
2022-11-19T11:40:09.489Z,1008.23
2022-11-19T11:41:56.439Z,1008.21
2022-11-19T11:42:14.441Z,1008.21
2022-11-19T11:43:10.457Z,1008.26
2022-11-19T11:44:09.463Z,1008.19
2022-11-19T11:45:09.431Z,1008.24
2022-11-19T11:46:09.424Z,1008.13
2022-11-19T11:47:09.412Z,1008.11
2022-11-19T11:48:09.402Z,1008.05
2022-11-19T11:49:12.596Z,1008.04
2022-11-19T11:50:09.393Z,1008.03
2022-11-19T11:51:09.391Z,1008.03
2022-11-19T11:52:09.357Z,1008.03
2022-11-19T11:53:09.347Z,1008.07
2022-11-19T11:54:12.592Z,1008.04
2022-11-19T11:55:10.322Z,1008.10
2022-11-19T11:56:09.336Z,1008.08
2022-11-19T11:57:09.299Z,1008.10
2022-11-19T11:58:09.289Z,1008.04
2022-11-19T11:59:09.299Z,1008.06
2022-11-19T12:00:09.269Z,1008.10
2022-11-19T12:01:12.804Z,1008.09
2022-11-19T12:02:10.311Z,1008.06
2022-11-19T12:03:09.237Z,1008.08
2022-11-19T12:04:09.286Z,1008.08
2022-11-19T12:05:09.236Z,1008.16